Aniara — SKJC — position and weather

sailwx.info

Track history (hours):
 
Tides and Currents Weather Stations Pressure Air Temp Water Temp Dewpoint Dewpoint Depression Visibility Wind Speed Wind Dir Waves Ship Positions

Aniara

Last reported at 2015-Jan-25 23:20 UTC. Time now 2015-Jan-26 00:28 UTC.
Position N 50°53' E 001°07'.

Length 232 m; draft 9.4 m.

Type: Cargo ship. MMSI: 266282000.

Date/timePositionNaut miles runAvg speedWind from/ knotsBaromVisibWave heightAir tempDewpointWater temp
2015-Jan-25 23:20N 50°53' E 001°07'1114.5
2015-Jan-25 22:33N 51°01' E 001°20'1615.6
2015-Jan-25 21:34N 51°11' E 001°39'1615.9
2015-Jan-25 20:33N 51°23' E 001°56'1313.5
2015-Jan-25 19:33N 51°21' E 002°17'10 9.5
2015-Jan-25 18:30N 51°23' E 002°33'7 7.1
2015-Jan-25 17:33N 51°23' E 002°44'1514.3
2015-Jan-25 16:30N 51°24' E 003°08'5 5.1
2015-Jan-25 15:33N 51°20' E 003°13'1 1.1
2015-Jan-25 14:33N 51°19' E 003°14'0 0.0
2015-Jan-25 13:28N 51°19' E 003°14'0 0.0
2015-Jan-25 12:25N 51°19' E 003°14'0 0.0
2015-Jan-25 11:28N 51°19' E 003°14'0 0.0
2015-Jan-25 10:31N 51°19' E 003°14'0 0.0
2015-Jan-25 09:31N 51°19' E 003°14'0 0.0
2015-Jan-25 08:16N 51°19' E 003°14'0 0.0
2015-Jan-25 07:31N 51°19' E 003°14'0 0.0
2015-Jan-25 06:28N 51°19' E 003°14'0 0.0
2015-Jan-25 05:28N 51°19' E 003°14'0 0.0
2015-Jan-25 04:31N 51°19' E 003°14'0 0.0
2015-Jan-25 03:31N 51°19' E 003°14'0 0.0
2015-Jan-25 02:31N 51°19' E 003°14'0 0.0
2015-Jan-25 01:31N 51°19' E 003°14'0 0.0
2015-Jan-25 00:31N 51°19' E 003°14'0 0.0
2015-Jan-24 23:31N 51°19' E 003°14'0 0.0
2015-Jan-24 22:31N 51°19' E 003°14'0 0.0
2015-Jan-24 21:31N 51°19' E 003°14'0 0.0
2015-Jan-24 20:28N 51°19' E 003°14'0 0.0
2015-Jan-24 19:31N 51°19' E 003°14'0 0.0
2015-Jan-24 18:31N 51°19' E 003°14'0 0.0
2015-Jan-24 17:25N 51°19' E 003°14'0 0.0
2015-Jan-24 16:25N 51°19' E 003°14'0 0.0
2015-Jan-24 15:31N 51°19' E 003°14'0 0.0
2015-Jan-24 14:25N 51°19' E 003°14'0 0.0
2015-Jan-24 13:28N 51°19' E 003°14'0 0.0
2015-Jan-24 12:31N 51°19' E 003°14'0 0.0
2015-Jan-24 11:28N 51°19' E 003°14'0 0.0
2015-Jan-24 10:22N 51°19' E 003°14'0 0.0
2015-Jan-24 09:28N 51°19' E 003°14'0 0.0
2015-Jan-24 08:28N 51°19' E 003°14'0 0.0
2015-Jan-24 07:31N 51°19' E 003°14'0 0.0
2015-Jan-24 06:33N 51°19' E 003°14'1 0.9
2015-Jan-24 05:33N 51°20' E 003°13'0 0.1
2015-Jan-24 04:33N 51°20' E 003°13'8 8.5
2015-Jan-24 03:34N 51°25' E 003°02'1211.6
2015-Jan-24 02:33N 51°27' E 002°43'1514.9
2015-Jan-24 01:33N 51°40' E 002°54'5316.6
2015-Jan-23 22:23N 52°27' E 003°35'5316.8
2015-Jan-23 19:15N 53°10' E 004°24'4416.4
2015-Jan-23 16:32N 53°51' E 004°54'1717.1
2015-Jan-23 15:32N 54°07' E 005°05'26917.9
2015-Jan-23 00:32N 57°46' E 009°44'1818.2
2015-Jan-22 23:33N 57°51' E 010°16'1818.6
2015-Jan-22 22:33N 57°48' E 010°50'1918.8
2015-Jan-22 21:34N 57°40' E 011°22'1413.7
2015-Jan-22 20:33N 57°40' E 011°47'3 2.8
2015-Jan-22 19:32N 57°41' E 011°52'0 0.0
2015-Jan-22 18:32N 57°41' E 011°52'0 0.0
2015-Jan-22 17:32N 57°41' E 011°52'0 0.0
2015-Jan-22 16:29N 57°41' E 011°52'0 0.0
2015-Jan-22 15:32N 57°41' E 011°52'0 0.0
2015-Jan-22 14:32N 57°41' E 011°52'0 0.0
2015-Jan-22 13:32N 57°41' E 011°52'0 0.0
2015-Jan-22 12:32N 57°41' E 011°52'0 0.0
2015-Jan-22 11:32N 57°41' E 011°52'0 0.0
2015-Jan-22 10:32N 57°41' E 011°52'0 0.0
2015-Jan-22 09:32N 57°41' E 011°52'0 0.0
2015-Jan-22 08:32N 57°41' E 011°52'0 0.0
2015-Jan-22 07:32N 57°41' E 011°52'0 0.0
2015-Jan-22 06:32N 57°41' E 011°52'0 0.0
2015-Jan-22 05:32N 57°41' E 011°52'0 0.0
2015-Jan-22 04:32N 57°41' E 011°52'0 0.0
2015-Jan-22 03:32N 57°41' E 011°52'0 0.0
2015-Jan-22 02:32N 57°41' E 011°52'0 0.0
2015-Jan-22 01:29N 57°41' E 011°52'0 0.0
2015-Jan-22 00:29N 57°41' E 011°52'0 0.0
2015-Jan-21 23:32N 57°41' E 011°52'0 0.0
2015-Jan-21 22:50N 57°41' E 011°52'0 0.0
2015-Jan-21 22:41N 57°41' E 011°52'0 0.0
2015-Jan-21 22:32N 57°41' E 011°52'0 0.0
2015-Jan-21 21:32N 57°41' E 011°52'0 0.0
2015-Jan-21 20:32N 57°41' E 011°52'0 0.0
2015-Jan-21 19:32N 57°41' E 011°52'0 0.0
2015-Jan-21 18:32N 57°41' E 011°52'0 0.0
2015-Jan-21 17:29N 57°41' E 011°52'0 0.0
2015-Jan-21 16:32N 57°41' E 011°52'0 0.0
2015-Jan-21 15:32N 57°41' E 011°52'3 2.6
2015-Jan-21 14:33N 57°40' E 011°48'1110.8
2015-Jan-21 13:33N 57°38' E 011°28'1212.2
2015-Jan-21 12:33N 57°44' E 011°08'1413.8
2015-Jan-21 11:33N 57°50' E 010°44'1414.1
2015-Jan-21 10:33N 57°50' E 010°18'16216.1
2015-Jan-21 00:32N 55°43' E 007°15'1919.1
2015-Jan-20 23:33N 55°26' E 007°04'1918.7
2015-Jan-20 22:33N 55°07' E 007°03'1918.9
2015-Jan-20 21:33N 54°48' E 007°07'1818.0
2015-Jan-20 20:34N 54°31' E 007°15'1818.1
2015-Jan-20 19:33N 54°14' E 007°27'1716.9
2015-Jan-20 18:33N 53°59' E 007°41'1313.2
2015-Jan-20 17:33N 53°51' E 007°59'1918.9
2015-Jan-20 16:33N 53°39' E 008°24'8 7.4
2015-Jan-20 15:31N 53°34' E 008°33'0 0.5
2015-Jan-20 14:31N 53°35' E 008°33'0 0.0
2015-Jan-20 13:31N 53°35' E 008°33'0 0.0
2015-Jan-20 12:31N 53°35' E 008°33'0 0.0
2015-Jan-20 11:31N 53°35' E 008°33'0 0.0
2015-Jan-20 10:31N 53°35' E 008°33'0 0.0
2015-Jan-20 09:31N 53°35' E 008°33'0 0.0
2015-Jan-20 08:31N 53°35' E 008°33'0 0.0
2015-Jan-20 07:31N 53°35' E 008°33'0 0.0
2015-Jan-20 06:30N 53°35' E 008°33'0 0.0
2015-Jan-20 05:28N 53°35' E 008°33'0 0.0
2015-Jan-20 04:31N 53°35' E 008°33'0 0.0
2015-Jan-20 03:28N 53°35' E 008°33'0 0.0
2015-Jan-20 02:25N 53°35' E 008°33'0 0.0
2015-Jan-20 01:31N 53°35' E 008°33'0 0.0
2015-Jan-20 00:31N 53°35' E 008°33'0 0.0
2015-Jan-19 23:31N 53°35' E 008°33'0 0.0
2015-Jan-19 22:28N 53°35' E 008°33'0 0.0
2015-Jan-19 21:31N 53°35' E 008°33'0 0.0
2015-Jan-19 20:31N 53°35' E 008°33'0 0.0
2015-Jan-19 19:31N 53°35' E 008°33'0 0.0
2015-Jan-19 18:31N 53°35' E 008°33'0 0.0
2015-Jan-19 17:31N 53°35' E 008°33'0 0.0
2015-Jan-19 16:31N 53°35' E 008°33'0 0.0
2015-Jan-19 15:28N 53°35' E 008°33'0 0.0
2015-Jan-19 14:28N 53°35' E 008°33'0 0.0
2015-Jan-19 13:31N 53°35' E 008°33'0 0.0
2015-Jan-19 12:31N 53°35' E 008°33'1 0.7
2015-Jan-19 11:31N 53°34' E 008°33'0 0.0
2015-Jan-19 10:31N 53°34' E 008°33'0 0.0
2015-Jan-19 09:31N 53°34' E 008°33'0 0.0
2015-Jan-19 08:28N 53°34' E 008°33'0 0.0
2015-Jan-19 07:31N 53°34' E 008°33'0 0.0
2015-Jan-19 06:31N 53°34' E 008°33'0 0.0
2015-Jan-19 05:31N 53°34' E 008°33'0 0.0
2015-Jan-19 04:31N 53°34' E 008°33'0 0.0
2015-Jan-19 03:31N 53°34' E 008°33'0 0.0
2015-Jan-19 02:31N 53°34' E 008°33'0 0.0
2015-Jan-19 01:31N 53°34' E 008°33'0 0.0
2015-Jan-19 00:31N 53°34' E 008°33'0 0.0
2015-Jan-18 23:31N 53°34' E 008°33'0 0.0
2015-Jan-18 22:31N 53°34' E 008°33'0 0.0
2015-Jan-18 21:31N 53°34' E 008°33'0 0.0
2015-Jan-18 20:31N 53°34' E 008°33'0 0.0
2015-Jan-18 19:31N 53°34' E 008°33'0 0.0
2015-Jan-18 18:31N 53°34' E 008°33'0 0.0
2015-Jan-18 17:31N 53°34' E 008°33'0 0.0
2015-Jan-18 16:31N 53°34' E 008°33'0 0.0
2015-Jan-18 15:28N 53°34' E 008°33'0 0.0
2015-Jan-18 14:31N 53°34' E 008°33'0 0.0
2015-Jan-18 13:31N 53°34' E 008°33'0 0.0
2015-Jan-18 12:31N 53°34' E 008°33'0 0.0
2015-Jan-18 11:31N 53°34' E 008°33'0 0.0
2015-Jan-18 10:31N 53°34' E 008°33'0 0.0
2015-Jan-18 09:31N 53°34' E 008°33'0 0.0
2015-Jan-18 08:31N 53°34' E 008°33'0 0.0
2015-Jan-18 07:31N 53°34' E 008°33'0 0.0
2015-Jan-18 06:31N 53°34' E 008°33'0 0.0
2015-Jan-18 05:31N 53°34' E 008°33'0 0.0
2015-Jan-18 04:31N 53°34' E 008°33'0 0.0
2015-Jan-18 03:31N 53°34' E 008°33'0 0.0
2015-Jan-18 02:25N 53°34' E 008°33'0 0.0
2015-Jan-18 01:31N 53°34' E 008°33'0 0.0
2015-Jan-18 00:28N 53°34' E 008°33'0 0.0
2015-Jan-17 23:31N 53°34' E 008°33'0 0.0
2015-Jan-17 22:31N 53°34' E 008°33'0 0.0
2015-Jan-17 21:31N 53°34' E 008°33'0 0.0
2015-Jan-17 20:31N 53°34' E 008°33'0 0.0
2015-Jan-17 19:28N 53°34' E 008°33'0 0.0
2015-Jan-17 18:31N 53°34' E 008°33'0 0.0
2015-Jan-17 17:31N 53°34' E 008°33'0 0.0
2015-Jan-17 16:31N 53°34' E 008°33'0 0.0
2015-Jan-17 15:31N 53°34' E 008°33'0 0.0
2015-Jan-17 14:31N 53°34' E 008°33'0 0.0
2015-Jan-17 13:31N 53°34' E 008°33'0 0.0
2015-Jan-17 12:31N 53°34' E 008°33'0 0.0
2015-Jan-17 11:31N 53°34' E 008°33'0 0.0
2015-Jan-17 10:31N 53°34' E 008°33'0 0.0
2015-Jan-17 09:28N 53°34' E 008°33'0 0.0
2015-Jan-17 08:28N 53°34' E 008°33'0 0.0
2015-Jan-17 07:31N 53°34' E 008°33'0 0.0
2015-Jan-17 06:31N 53°34' E 008°33'0 0.0
2015-Jan-17 05:31N 53°34' E 008°33'0 0.0
2015-Jan-17 04:31N 53°34' E 008°33'0 0.0
2015-Jan-17 03:31N 53°34' E 008°33'0 0.0
2015-Jan-17 02:31N 53°34' E 008°33'0 0.0
2015-Jan-17 01:31N 53°34' E 008°33'0 0.0
2015-Jan-17 00:31N 53°34' E 008°33'0 0.0
2015-Jan-16 23:31N 53°34' E 008°33'0 0.0
2015-Jan-16 22:31N 53°34' E 008°33'0 0.0
2015-Jan-16 21:31N 53°34' E 008°33'0 0.0
2015-Jan-16 20:31N 53°34' E 008°33'0 0.0
2015-Jan-16 19:31N 53°34' E 008°33'0 0.0
2015-Jan-16 18:31N 53°34' E 008°33'0 0.0
2015-Jan-16 17:31N 53°34' E 008°33'0 0.0
2015-Jan-16 16:31N 53°34' E 008°33'0 0.0
2015-Jan-16 15:31N 53°34' E 008°33'0 0.0
2015-Jan-16 14:31N 53°34' E 008°33'0 0.0
2015-Jan-16 13:31N 53°34' E 008°33'0 0.0
2015-Jan-16 12:31N 53°34' E 008°33'0 0.0
2015-Jan-16 11:31N 53°34' E 008°33'0 0.0
2015-Jan-16 10:31N 53°34' E 008°33'0 0.0
2015-Jan-16 09:31N 53°34' E 008°33'0 0.0
2015-Jan-16 08:31N 53°34' E 008°33'0 0.0
2015-Jan-16 07:33N 53°34' E 008°33'0 0.2
2015-Jan-16 06:33N 53°34' E 008°33'3 2.5
2015-Jan-16 05:33N 53°36' E 008°30'1212.1
2015-Jan-16 04:33N 53°44' E 008°15'1110.9
2015-Jan-16 03:33N 53°51' E 008°01'1313.0
2015-Jan-16 02:31N 53°56' E 007°39'1313.5
2015-Jan-16 01:33N 54°07' E 007°29'1313.4
2015-Jan-16 00:34N 54°18' E 007°14'1 1.4
2015-Jan-15 23:34N 54°17' E 007°12'  
Track history (hours):
 
Tides and Currents Weather Stations Pressure Air Temp Water Temp Dewpoint Dewpoint Depression Visibility Wind Speed Wind Dir Waves Ship Positions

Aniara

Last reported at 2015-Jan-25 23:20 UTC. Time now 2015-Jan-26 00:28 UTC.
Position N 50°53' E 001°07'.

Length 232 m; draft 9.4 m.

Type: Cargo ship. MMSI: 266282000.

Date/timePositionNaut miles runAvg speedWind from/ knotsBaromVisibWave heightAir tempDewpointWater temp
2015-Jan-25 23:20N 50°53' E 001°07'1114.5
2015-Jan-25 22:33N 51°01' E 001°20'1615.6
2015-Jan-25 21:34N 51°11' E 001°39'1615.9
2015-Jan-25 20:33N 51°23' E 001°56'1313.5
2015-Jan-25 19:33N 51°21' E 002°17'10 9.5
2015-Jan-25 18:30N 51°23' E 002°33'7 7.1
2015-Jan-25 17:33N 51°23' E 002°44'1514.3
2015-Jan-25 16:30N 51°24' E 003°08'5 5.1
2015-Jan-25 15:33N 51°20' E 003°13'1 1.1
2015-Jan-25 14:33N 51°19' E 003°14'0 0.0
2015-Jan-25 13:28N 51°19' E 003°14'0 0.0
2015-Jan-25 12:25N 51°19' E 003°14'0 0.0
2015-Jan-25 11:28N 51°19' E 003°14'0 0.0
2015-Jan-25 10:31N 51°19' E 003°14'0 0.0
2015-Jan-25 09:31N 51°19' E 003°14'0 0.0
2015-Jan-25 08:16N 51°19' E 003°14'0 0.0
2015-Jan-25 07:31N 51°19' E 003°14'0 0.0
2015-Jan-25 06:28N 51°19' E 003°14'0 0.0
2015-Jan-25 05:28N 51°19' E 003°14'0 0.0
2015-Jan-25 04:31N 51°19' E 003°14'0 0.0
2015-Jan-25 03:31N 51°19' E 003°14'0 0.0
2015-Jan-25 02:31N 51°19' E 003°14'0 0.0
2015-Jan-25 01:31N 51°19' E 003°14'0 0.0
2015-Jan-25 00:31N 51°19' E 003°14'0 0.0
2015-Jan-24 23:31N 51°19' E 003°14'0 0.0
2015-Jan-24 22:31N 51°19' E 003°14'0 0.0
2015-Jan-24 21:31N 51°19' E 003°14'0 0.0
2015-Jan-24 20:28N 51°19' E 003°14'0 0.0
2015-Jan-24 19:31N 51°19' E 003°14'0 0.0
2015-Jan-24 18:31N 51°19' E 003°14'0 0.0
2015-Jan-24 17:25N 51°19' E 003°14'0 0.0
2015-Jan-24 16:25N 51°19' E 003°14'0 0.0
2015-Jan-24 15:31N 51°19' E 003°14'0 0.0
2015-Jan-24 14:25N 51°19' E 003°14'0 0.0
2015-Jan-24 13:28N 51°19' E 003°14'0 0.0
2015-Jan-24 12:31N 51°19' E 003°14'0 0.0
2015-Jan-24 11:28N 51°19' E 003°14'0 0.0
2015-Jan-24 10:22N 51°19' E 003°14'0 0.0
2015-Jan-24 09:28N 51°19' E 003°14'0 0.0
2015-Jan-24 08:28N 51°19' E 003°14'0 0.0
2015-Jan-24 07:31N 51°19' E 003°14'0 0.0
2015-Jan-24 06:33N 51°19' E 003°14'1 0.9
2015-Jan-24 05:33N 51°20' E 003°13'0 0.1
2015-Jan-24 04:33N 51°20' E 003°13'8 8.5
2015-Jan-24 03:34N 51°25' E 003°02'1211.6
2015-Jan-24 02:33N 51°27' E 002°43'1514.9
2015-Jan-24 01:33N 51°40' E 002°54'5316.6
2015-Jan-23 22:23N 52°27' E 003°35'5316.8
2015-Jan-23 19:15N 53°10' E 004°24'4416.4
2015-Jan-23 16:32N 53°51' E 004°54'1717.1
2015-Jan-23 15:32N 54°07' E 005°05'26917.9
2015-Jan-23 00:32N 57°46' E 009°44'1818.2
2015-Jan-22 23:33N 57°51' E 010°16'1818.6
2015-Jan-22 22:33N 57°48' E 010°50'1918.8
2015-Jan-22 21:34N 57°40' E 011°22'1413.7
2015-Jan-22 20:33N 57°40' E 011°47'3 2.8
2015-Jan-22 19:32N 57°41' E 011°52'0 0.0
2015-Jan-22 18:32N 57°41' E 011°52'0 0.0
2015-Jan-22 17:32N 57°41' E 011°52'0 0.0
2015-Jan-22 16:29N 57°41' E 011°52'0 0.0
2015-Jan-22 15:32N 57°41' E 011°52'0 0.0
2015-Jan-22 14:32N 57°41' E 011°52'0 0.0
2015-Jan-22 13:32N 57°41' E 011°52'0 0.0
2015-Jan-22 12:32N 57°41' E 011°52'0 0.0
2015-Jan-22 11:32N 57°41' E 011°52'0 0.0
2015-Jan-22 10:32N 57°41' E 011°52'0 0.0
2015-Jan-22 09:32N 57°41' E 011°52'0 0.0
2015-Jan-22 08:32N 57°41' E 011°52'0 0.0
2015-Jan-22 07:32N 57°41' E 011°52'0 0.0
2015-Jan-22 06:32N 57°41' E 011°52'0 0.0
2015-Jan-22 05:32N 57°41' E 011°52'0 0.0
2015-Jan-22 04:32N 57°41' E 011°52'0 0.0
2015-Jan-22 03:32N 57°41' E 011°52'0 0.0
2015-Jan-22 02:32N 57°41' E 011°52'0 0.0
2015-Jan-22 01:29N 57°41' E 011°52'0 0.0
2015-Jan-22 00:29N 57°41' E 011°52'0 0.0
2015-Jan-21 23:32N 57°41' E 011°52'0 0.0
2015-Jan-21 22:50N 57°41' E 011°52'0 0.0
2015-Jan-21 22:41N 57°41' E 011°52'0 0.0
2015-Jan-21 22:32N 57°41' E 011°52'0 0.0
2015-Jan-21 21:32N 57°41' E 011°52'0 0.0
2015-Jan-21 20:32N 57°41' E 011°52'0 0.0
2015-Jan-21 19:32N 57°41' E 011°52'0 0.0
2015-Jan-21 18:32N 57°41' E 011°52'0 0.0
2015-Jan-21 17:29N 57°41' E 011°52'0 0.0
2015-Jan-21 16:32N 57°41' E 011°52'0 0.0
2015-Jan-21 15:32N 57°41' E 011°52'3 2.6
2015-Jan-21 14:33N 57°40' E 011°48'1110.8
2015-Jan-21 13:33N 57°38' E 011°28'1212.2
2015-Jan-21 12:33N 57°44' E 011°08'1413.8
2015-Jan-21 11:33N 57°50' E 010°44'1414.1
2015-Jan-21 10:33N 57°50' E 010°18'16216.1
2015-Jan-21 00:32N 55°43' E 007°15'1919.1
2015-Jan-20 23:33N 55°26' E 007°04'1918.7
2015-Jan-20 22:33N 55°07' E 007°03'1918.9
2015-Jan-20 21:33N 54°48' E 007°07'1818.0
2015-Jan-20 20:34N 54°31' E 007°15'1818.1
2015-Jan-20 19:33N 54°14' E 007°27'1716.9
2015-Jan-20 18:33N 53°59' E 007°41'1313.2
2015-Jan-20 17:33N 53°51' E 007°59'1918.9
2015-Jan-20 16:33N 53°39' E 008°24'8 7.4
2015-Jan-20 15:31N 53°34' E 008°33'0 0.5
2015-Jan-20 14:31N 53°35' E 008°33'0 0.0
2015-Jan-20 13:31N 53°35' E 008°33'0 0.0
2015-Jan-20 12:31N 53°35' E 008°33'0 0.0
2015-Jan-20 11:31N 53°35' E 008°33'0 0.0
2015-Jan-20 10:31N 53°35' E 008°33'0 0.0
2015-Jan-20 09:31N 53°35' E 008°33'0 0.0
2015-Jan-20 08:31N 53°35' E 008°33'0 0.0
2015-Jan-20 07:31N 53°35' E 008°33'0 0.0
2015-Jan-20 06:30N 53°35' E 008°33'0 0.0
2015-Jan-20 05:28N 53°35' E 008°33'0 0.0
2015-Jan-20 04:31N 53°35' E 008°33'0 0.0
2015-Jan-20 03:28N 53°35' E 008°33'0 0.0
2015-Jan-20 02:25N 53°35' E 008°33'0 0.0
2015-Jan-20 01:31N 53°35' E 008°33'0 0.0
2015-Jan-20 00:31N 53°35' E 008°33'0 0.0
2015-Jan-19 23:31N 53°35' E 008°33'0 0.0
2015-Jan-19 22:28N 53°35' E 008°33'0 0.0
2015-Jan-19 21:31N 53°35' E 008°33'0 0.0
2015-Jan-19 20:31N 53°35' E 008°33'0 0.0
2015-Jan-19 19:31N 53°35' E 008°33'0 0.0
2015-Jan-19 18:31N 53°35' E 008°33'0 0.0
2015-Jan-19 17:31N 53°35' E 008°33'0 0.0
2015-Jan-19 16:31N 53°35' E 008°33'0 0.0
2015-Jan-19 15:28N 53°35' E 008°33'0 0.0
2015-Jan-19 14:28N 53°35' E 008°33'0 0.0
2015-Jan-19 13:31N 53°35' E 008°33'0 0.0
2015-Jan-19 12:31N 53°35' E 008°33'1 0.7
2015-Jan-19 11:31N 53°34' E 008°33'0 0.0
2015-Jan-19 10:31N 53°34' E 008°33'0 0.0
2015-Jan-19 09:31N 53°34' E 008°33'0 0.0
2015-Jan-19 08:28N 53°34' E 008°33'0 0.0
2015-Jan-19 07:31N 53°34' E 008°33'0 0.0
2015-Jan-19 06:31N 53°34' E 008°33'0 0.0
2015-Jan-19 05:31N 53°34' E 008°33'0 0.0
2015-Jan-19 04:31N 53°34' E 008°33'0 0.0
2015-Jan-19 03:31N 53°34' E 008°33'0 0.0
2015-Jan-19 02:31N 53°34' E 008°33'0 0.0
2015-Jan-19 01:31N 53°34' E 008°33'0 0.0
2015-Jan-19 00:31N 53°34' E 008°33'0 0.0
2015-Jan-18 23:31N 53°34' E 008°33'0 0.0
2015-Jan-18 22:31N 53°34' E 008°33'0 0.0
2015-Jan-18 21:31N 53°34' E 008°33'0 0.0
2015-Jan-18 20:31N 53°34' E 008°33'0 0.0
2015-Jan-18 19:31N 53°34' E 008°33'0 0.0
2015-Jan-18 18:31N 53°34' E 008°33'0 0.0
2015-Jan-18 17:31N 53°34' E 008°33'0 0.0
2015-Jan-18 16:31N 53°34' E 008°33'0 0.0
2015-Jan-18 15:28N 53°34' E 008°33'0 0.0
2015-Jan-18 14:31N 53°34' E 008°33'0 0.0
2015-Jan-18 13:31N 53°34' E 008°33'0 0.0
2015-Jan-18 12:31N 53°34' E 008°33'0 0.0
2015-Jan-18 11:31N 53°34' E 008°33'0 0.0
2015-Jan-18 10:31N 53°34' E 008°33'0 0.0
2015-Jan-18 09:31N 53°34' E 008°33'0 0.0
2015-Jan-18 08:31N 53°34' E 008°33'0 0.0
2015-Jan-18 07:31N 53°34' E 008°33'0 0.0
2015-Jan-18 06:31N 53°34' E 008°33'0 0.0
2015-Jan-18 05:31N 53°34' E 008°33'0 0.0
2015-Jan-18 04:31N 53°34' E 008°33'0 0.0
2015-Jan-18 03:31N 53°34' E 008°33'0 0.0
2015-Jan-18 02:25N 53°34' E 008°33'0 0.0
2015-Jan-18 01:31N 53°34' E 008°33'0 0.0
2015-Jan-18 00:28N 53°34' E 008°33'0 0.0
2015-Jan-17 23:31N 53°34' E 008°33'0 0.0
2015-Jan-17 22:31N 53°34' E 008°33'0 0.0
2015-Jan-17 21:31N 53°34' E 008°33'0 0.0
2015-Jan-17 20:31N 53°34' E 008°33'0 0.0
2015-Jan-17 19:28N 53°34' E 008°33'0 0.0
2015-Jan-17 18:31N 53°34' E 008°33'0 0.0
2015-Jan-17 17:31N 53°34' E 008°33'0 0.0
2015-Jan-17 16:31N 53°34' E 008°33'0 0.0
2015-Jan-17 15:31N 53°34' E 008°33'0 0.0
2015-Jan-17 14:31N 53°34' E 008°33'0 0.0
2015-Jan-17 13:31N 53°34' E 008°33'0 0.0
2015-Jan-17 12:31N 53°34' E 008°33'0 0.0
2015-Jan-17 11:31N 53°34' E 008°33'0 0.0
2015-Jan-17 10:31N 53°34' E 008°33'0 0.0
2015-Jan-17 09:28N 53°34' E 008°33'0 0.0
2015-Jan-17 08:28N 53°34' E 008°33'0 0.0
2015-Jan-17 07:31N 53°34' E 008°33'0 0.0
2015-Jan-17 06:31N 53°34' E 008°33'0 0.0
2015-Jan-17 05:31N 53°34' E 008°33'0 0.0
2015-Jan-17 04:31N 53°34' E 008°33'0 0.0
2015-Jan-17 03:31N 53°34' E 008°33'0 0.0
2015-Jan-17 02:31N 53°34' E 008°33'0 0.0
2015-Jan-17 01:31N 53°34' E 008°33'0 0.0
2015-Jan-17 00:31N 53°34' E 008°33'0 0.0
2015-Jan-16 23:31N 53°34' E 008°33'0 0.0
2015-Jan-16 22:31N 53°34' E 008°33'0 0.0
2015-Jan-16 21:31N 53°34' E 008°33'0 0.0
2015-Jan-16 20:31N 53°34' E 008°33'0 0.0
2015-Jan-16 19:31N 53°34' E 008°33'0 0.0
2015-Jan-16 18:31N 53°34' E 008°33'0 0.0
2015-Jan-16 17:31N 53°34' E 008°33'0 0.0
2015-Jan-16 16:31N 53°34' E 008°33'0 0.0
2015-Jan-16 15:31N 53°34' E 008°33'0 0.0
2015-Jan-16 14:31N 53°34' E 008°33'0 0.0
2015-Jan-16 13:31N 53°34' E 008°33'0 0.0
2015-Jan-16 12:31N 53°34' E 008°33'0 0.0
2015-Jan-16 11:31N 53°34' E 008°33'0 0.0
2015-Jan-16 10:31N 53°34' E 008°33'0 0.0
2015-Jan-16 09:31N 53°34' E 008°33'0 0.0
2015-Jan-16 08:31N 53°34' E 008°33'0 0.0
2015-Jan-16 07:33N 53°34' E 008°33'0 0.2
2015-Jan-16 06:33N 53°34' E 008°33'3 2.5
2015-Jan-16 05:33N 53°36' E 008°30'1212.1
2015-Jan-16 04:33N 53°44' E 008°15'1110.9
2015-Jan-16 03:33N 53°51' E 008°01'1313.0
2015-Jan-16 02:31N 53°56' E 007°39'1313.5
2015-Jan-16 01:33N 54°07' E 007°29'1313.4
2015-Jan-16 00:34N 54°18' E 007°14'1 1.4
2015-Jan-15 23:34N 54°17' E 007°12'  

Dump ship's entire track history